createdAt,value
2022-12-13T00:01:41.720Z,16.27
2022-12-13T00:04:08.581Z,18.10
2022-12-13T00:06:33.110Z,17.87
2022-12-13T00:08:58.662Z,16.97
2022-12-13T00:11:22.453Z,17.60
2022-12-13T00:13:47.044Z,15.17
2022-12-13T00:16:15.063Z,19.37
2022-12-13T00:18:39.013Z,17.50
2022-12-13T00:21:07.190Z,18.50
2022-12-13T00:23:30.781Z,18.07
2022-12-13T00:25:55.829Z,18.50
2022-12-13T00:28:19.451Z,19.40
2022-12-13T00:30:43.358Z,19.23
2022-12-13T00:33:07.692Z,17.43
2022-12-13T00:35:31.351Z,19.07
2022-12-13T00:37:54.973Z,18.30
2022-12-13T00:40:18.760Z,18.63
2022-12-13T00:42:43.761Z,17.93
2022-12-13T00:45:09.606Z,18.20
2022-12-13T00:47:33.217Z,17.83
2022-12-13T00:49:56.934Z,16.50
2022-12-13T00:52:20.520Z,17.17
2022-12-13T00:54:44.169Z,16.97
2022-12-13T00:57:07.756Z,17.20
2022-12-13T00:59:32.867Z,16.87
2022-12-13T01:01:56.453Z,16.83
2022-12-13T01:04:20.169Z,16.73
2022-12-13T01:06:46.187Z,17.60
2022-12-13T01:09:18.994Z,14.83
2022-12-13T01:11:42.641Z,16.70
2022-12-13T01:14:06.305Z,15.30
2022-12-13T01:16:31.477Z,16.80
2022-12-13T01:18:56.038Z,14.67
2022-12-13T01:21:22.149Z,14.80
2022-12-13T01:23:46.877Z,15.40
2022-12-13T01:26:13.654Z,15.50
2022-12-13T01:28:37.512Z,14.90
2022-12-13T01:31:04.411Z,15.77
2022-12-13T01:33:30.972Z,15.47
2022-12-13T01:35:55.192Z,15.77
2022-12-13T01:38:19.266Z,15.33
2022-12-13T01:40:46.543Z,15.70
2022-12-13T01:43:14.423Z,16.57
2022-12-13T01:45:38.699Z,15.70
2022-12-13T01:48:06.665Z,15.90
2022-12-13T01:50:37.551Z,15.43
2022-12-13T01:53:02.055Z,16.23
2022-12-13T01:55:28.831Z,16.03
2022-12-13T01:57:55.122Z,15.70
2022-12-13T02:00:19.198Z,15.40
2022-12-13T02:02:43.259Z,14.87
2022-12-13T02:05:12.791Z,15.20
2022-12-13T02:07:40.283Z,14.40
2022-12-13T02:10:08.803Z,14.57
2022-12-13T02:12:36.259Z,14.90
2022-12-13T02:15:01.282Z,15.43
2022-12-13T02:17:45.323Z,15.03
2022-12-13T02:21:11.572Z,14.80
2022-12-13T02:24:19.917Z,15.27
2022-12-13T02:27:03.157Z,14.13
2022-12-13T02:30:17.223Z,13.87
2022-12-13T02:32:57.705Z,14.73
2022-12-13T02:35:28.465Z,14.40
2022-12-13T02:38:01.864Z,14.70
2022-12-13T02:40:29.459Z,15.07
2022-12-13T02:43:00.839Z,15.47
2022-12-13T02:45:31.455Z,14.53
2022-12-13T02:47:59.327Z,14.83
2022-12-13T02:50:24.780Z,14.93
2022-12-13T02:52:49.827Z,14.93
2022-12-13T02:55:17.370Z,11.23
2022-12-13T02:57:44.828Z,14.67
2022-12-13T03:00:12.485Z,16.07
2022-12-13T03:02:50.149Z,16.03
2022-12-13T03:05:57.513Z,16.50
2022-12-13T03:08:25.770Z,16.33
2022-12-13T03:11:00.139Z,15.57
2022-12-13T03:13:38.400Z,16.87
2022-12-13T03:16:14.940Z,17.67
2022-12-13T03:18:47.800Z,16.87
2022-12-13T03:21:15.600Z,16.03
2022-12-13T03:23:39.616Z,15.67
2022-12-13T03:26:07.791Z,16.90
2022-12-13T03:28:31.899Z,17.47
2022-12-13T03:30:55.558Z,18.13
2022-12-13T03:33:19.230Z,16.77
2022-12-13T03:35:45.792Z,17.70
2022-12-13T03:38:12.036Z,17.60
2022-12-13T03:40:36.669Z,17.20
2022-12-13T03:43:00.644Z,16.67
2022-12-13T03:45:24.272Z,16.57
2022-12-13T03:47:47.983Z,17.47
2022-12-13T03:50:26.695Z,17.67
2022-12-13T03:52:52.059Z,18.00
2022-12-13T03:55:17.324Z,18.50
2022-12-13T03:57:41.127Z,17.67
2022-12-13T04:00:07.588Z,18.43
2022-12-13T04:02:35.821Z,17.23
2022-12-13T04:05:00.767Z,18.43
2022-12-13T04:07:24.690Z,18.47
2022-12-13T04:09:48.308Z,18.37
2022-12-13T04:12:30.856Z,18.53
2022-12-13T04:14:54.508Z,17.57
2022-12-13T04:17:18.069Z,17.67
2022-12-13T04:19:41.741Z,17.77
2022-12-13T04:22:05.469Z,18.07
2022-12-13T04:24:31.197Z,18.20
2022-12-13T04:26:55.865Z,17.07
2022-12-13T04:29:20.979Z,17.80
2022-12-13T04:31:44.839Z,17.63
2022-12-13T04:34:08.602Z,17.10
2022-12-13T04:36:32.958Z,17.77
2022-12-13T04:38:56.640Z,17.17
2022-12-13T04:41:24.389Z,17.20
2022-12-13T04:43:53.544Z,16.87
2022-12-13T04:46:18.528Z,17.20
2022-12-13T04:48:42.193Z,16.80
2022-12-13T04:51:06.045Z,17.97
2022-12-13T04:53:30.049Z,16.50
2022-12-13T04:55:53.881Z,16.80
2022-12-13T04:58:22.863Z,16.80
2022-12-13T05:00:47.526Z,17.67
2022-12-13T05:03:13.074Z,17.13
2022-12-13T05:05:39.874Z,17.20
2022-12-13T05:08:03.626Z,16.00
2022-12-13T05:10:34.245Z,15.50
2022-12-13T05:13:01.539Z,15.80
2022-12-13T05:15:25.215Z,16.33
2022-12-13T05:17:48.855Z,15.53
2022-12-13T05:20:14.143Z,15.63
2022-12-13T05:22:38.119Z,14.57
2022-12-13T05:25:01.835Z,13.30
2022-12-13T05:27:26.945Z,15.50
2022-12-13T05:29:52.073Z,15.60
2022-12-13T05:32:18.705Z,13.90
2022-12-13T05:34:42.491Z,15.53
2022-12-13T05:37:07.729Z,13.87
2022-12-13T05:39:31.376Z,14.30
2022-12-13T05:41:55.942Z,15.10
2022-12-13T05:44:25.870Z,13.87
2022-12-13T05:46:49.479Z,13.87
2022-12-13T05:49:13.659Z,14.70
2022-12-13T05:51:37.358Z,15.67
2022-12-13T05:54:02.559Z,14.50
2022-12-13T05:56:26.285Z,15.63
2022-12-13T05:58:53.443Z,15.07
2022-12-13T06:01:18.760Z,15.03
2022-12-13T06:03:43.266Z,15.03
2022-12-13T06:06:09.280Z,15.50
2022-12-13T06:08:33.632Z,16.13
2022-12-13T06:11:10.760Z,15.40
2022-12-13T06:13:35.893Z,15.43
2022-12-13T06:16:08.456Z,15.90
2022-12-13T06:18:47.470Z,15.37
2022-12-13T06:21:14.660Z,15.43
2022-12-13T06:23:38.508Z,15.70
2022-12-13T06:26:07.280Z,16.27
2022-12-13T06:28:30.935Z,16.17
2022-12-13T06:30:55.610Z,16.90
2022-12-13T06:33:23.453Z,16.93
2022-12-13T06:35:47.477Z,15.77
2022-12-13T06:38:12.039Z,16.77
2022-12-13T06:40:35.911Z,16.47
2022-12-13T06:43:01.017Z,17.57
2022-12-13T06:45:25.456Z,17.40
2022-12-13T06:47:49.143Z,17.30
2022-12-13T06:50:12.749Z,18.07
2022-12-13T06:52:36.640Z,18.33
2022-12-13T06:55:00.277Z,17.03
2022-12-13T06:57:24.001Z,17.93
2022-12-13T06:59:49.051Z,18.17
2022-12-13T07:02:24.817Z,18.20
2022-12-13T07:04:49.625Z,19.83
2022-12-13T07:07:13.291Z,19.73
2022-12-13T07:09:37.081Z,20.37
2022-12-13T07:12:01.616Z,18.57
2022-12-13T07:14:28.927Z,20.20
2022-12-13T07:16:59.608Z,19.63
2022-12-13T07:19:26.880Z,20.27
2022-12-13T07:22:01.447Z,18.93
2022-12-13T07:24:25.087Z,20.30
2022-12-13T07:26:48.817Z,19.53
2022-12-13T07:29:12.597Z,20.87
2022-12-13T07:31:46.026Z,21.23
2022-12-13T07:34:15.474Z,19.97
2022-12-13T07:36:39.406Z,19.10
2022-12-13T07:39:02.988Z,20.97
2022-12-13T07:41:28.119Z,19.70
2022-12-13T07:43:55.087Z,20.43
2022-12-13T07:46:31.775Z,20.43
2022-12-13T07:49:01.780Z,21.30
2022-12-13T07:51:27.205Z,21.00
2022-12-13T07:53:50.890Z,21.50
2022-12-13T07:56:15.256Z,21.70
2022-12-13T07:58:39.146Z,21.07
2022-12-13T08:01:07.805Z,20.47
2022-12-13T08:03:31.912Z,20.67
2022-12-13T08:06:01.796Z,19.90
2022-12-13T08:08:30.873Z,20.77
2022-12-13T08:10:55.407Z,22.70
2022-12-13T08:13:25.189Z,18.50
2022-12-13T08:15:48.852Z,20.73
2022-12-13T08:18:13.078Z,19.87
2022-12-13T08:20:37.630Z,20.43
2022-12-13T08:23:02.874Z,19.93
2022-12-13T08:25:28.333Z,21.30
2022-12-13T08:27:51.990Z,20.63
2022-12-13T08:30:22.848Z,21.53
2022-12-13T08:32:47.425Z,21.43
2022-12-13T08:35:11.255Z,20.13
2022-12-13T08:37:34.963Z,21.60
2022-12-13T08:39:58.577Z,21.67
2022-12-13T08:42:25.014Z,21.63
2022-12-13T08:44:50.391Z,20.37
2022-12-13T08:47:23.817Z,21.30
2022-12-13T08:49:49.132Z,20.00
2022-12-13T08:52:12.749Z,20.30
2022-12-13T08:54:36.402Z,20.20
2022-12-13T08:57:00.032Z,19.97
2022-12-13T08:59:26.741Z,19.67
2022-12-13T09:01:53.612Z,19.63
2022-12-13T09:04:18.863Z,19.57
2022-12-13T09:06:55.528Z,20.27
2022-12-13T09:09:19.097Z,21.27
2022-12-13T09:11:42.961Z,20.80
2022-12-13T09:14:07.051Z,20.50
2022-12-13T09:16:39.184Z,19.50
2022-12-13T09:19:06.548Z,20.23
2022-12-13T09:21:46.583Z,20.00
2022-12-13T09:24:23.472Z,19.83
2022-12-13T09:26:48.530Z,19.17
2022-12-13T09:29:20.977Z,18.80
2022-12-13T09:31:51.132Z,19.77
2022-12-13T09:34:16.949Z,19.63
2022-12-13T09:36:40.592Z,19.80
2022-12-13T09:39:04.424Z,21.27
2022-12-13T09:41:34.237Z,21.03
2022-12-13T09:44:32.815Z,20.63
2022-12-13T09:47:01.085Z,19.47
2022-12-13T09:49:35.238Z,19.87
2022-12-13T09:52:10.902Z,20.80
2022-12-13T09:54:36.510Z,21.07
2022-12-13T09:57:00.390Z,20.20
2022-12-13T09:59:30.540Z,21.00
2022-12-13T10:01:55.946Z,20.20
2022-12-13T10:04:20.179Z,21.77
2022-12-13T10:06:44.022Z,21.67
2022-12-13T10:09:12.479Z,31.17
2022-12-13T10:11:36.146Z,23.13
2022-12-13T10:14:05.819Z,21.87
2022-12-13T10:16:37.945Z,20.80
2022-12-13T10:19:05.038Z,21.83
2022-12-13T10:21:35.659Z,26.27
2022-12-13T10:24:32.967Z,35.53
2022-12-13T10:26:56.099Z,22.83
2022-12-13T10:29:19.789Z,23.20
2022-12-13T10:31:46.206Z,22.00
2022-12-13T10:34:22.877Z,20.83
2022-12-13T10:36:46.565Z,19.23
2022-12-13T10:39:19.219Z,18.60
2022-12-13T10:41:42.918Z,17.70
2022-12-13T10:44:26.538Z,19.73
2022-12-13T10:47:07.890Z,18.27
2022-12-13T10:49:41.087Z,19.03
2022-12-13T10:52:05.535Z,18.03
2022-12-13T10:54:38.710Z,18.83
2022-12-13T10:57:13.446Z,19.27
2022-12-13T10:59:39.628Z,18.13
2022-12-13T11:02:04.575Z,20.10
2022-12-13T11:04:32.114Z,19.70
2022-12-13T11:06:59.115Z,19.73
2022-12-13T11:09:38.945Z,20.50
2022-12-13T11:12:12.923Z,20.70
2022-12-13T11:14:50.000Z,21.83
2022-12-13T11:17:19.921Z,20.03
2022-12-13T11:19:50.579Z,21.20
2022-12-13T11:22:25.579Z,20.77
2022-12-13T11:24:54.154Z,19.77
2022-12-13T11:27:39.942Z,20.37
2022-12-13T11:30:13.582Z,21.97
2022-12-13T11:33:02.593Z,20.37
2022-12-13T11:35:35.150Z,18.50
2022-12-13T11:38:17.331Z,16.60
2022-12-13T11:40:46.069Z,16.43
2022-12-13T11:43:21.574Z,16.20
2022-12-13T11:45:54.223Z,14.70
2022-12-13T11:48:25.483Z,15.70
2022-12-13T11:50:52.241Z,15.63
2022-12-13T11:53:28.412Z,14.97
2022-12-13T11:55:57.684Z,14.90
2022-12-13T12:01:19.016Z,15.83
2022-12-13T12:03:49.473Z,15.47
2022-12-13T12:06:21.431Z,15.50
2022-12-13T12:08:54.967Z,14.13
2022-12-13T12:11:27.955Z,13.30
2022-12-13T12:13:55.669Z,14.27
2022-12-13T12:16:32.264Z,13.97
2022-12-13T12:18:56.219Z,13.93
2022-12-13T12:22:12.303Z,14.00
2022-12-13T12:24:30.897Z,13.67
2022-12-13T12:27:22.075Z,13.90
2022-12-13T12:30:04.575Z,15.27
2022-12-13T12:32:38.144Z,14.13
2022-12-13T12:35:26.846Z,15.43
2022-12-13T12:37:58.229Z,14.70
2022-12-13T12:43:38.424Z,14.47
2022-12-13T12:46:25.141Z,14.70
2022-12-13T12:49:31.215Z,16.93
2022-12-13T12:52:03.197Z,14.27
2022-12-13T12:54:44.537Z,15.27
2022-12-13T12:57:18.968Z,15.20
2022-12-13T13:00:01.666Z,15.33
2022-12-13T13:02:34.226Z,15.73
2022-12-13T13:05:04.705Z,15.87
2022-12-13T13:07:39.786Z,15.60
2022-12-13T13:10:26.443Z,15.33
2022-12-13T13:12:51.094Z,15.57
2022-12-13T13:15:56.895Z,16.23
2022-12-13T13:18:47.077Z,7.00
2022-12-13T13:21:36.643Z,14.50
2022-12-13T13:24:25.521Z,15.60
2022-12-13T13:26:51.811Z,14.97
2022-12-13T13:29:43.643Z,15.23
2022-12-13T13:32:30.368Z,15.83
2022-12-13T13:35:00.830Z,16.17
2022-12-13T13:37:47.993Z,16.00
2022-12-13T13:40:32.276Z,16.60
2022-12-13T13:43:19.384Z,17.33
2022-12-13T13:46:11.636Z,16.30
2022-12-13T13:48:55.845Z,17.47
2022-12-13T13:52:24.316Z,17.77
2022-12-13T13:55:27.616Z,16.90
2022-12-13T13:58:36.869Z,17.57
2022-12-13T14:01:30.760Z,17.20
2022-12-13T14:04:48.883Z,19.47
2022-12-13T14:08:02.622Z,19.30
2022-12-13T14:10:51.760Z,18.67
2022-12-13T14:14:06.541Z,19.97
2022-12-13T14:17:32.799Z,19.07
2022-12-13T14:20:45.039Z,20.87
2022-12-13T14:23:21.583Z,20.50
2022-12-13T14:26:29.690Z,19.73
2022-12-13T14:28:57.763Z,20.47
2022-12-13T14:31:25.819Z,20.37
2022-12-13T14:33:53.597Z,19.93
2022-12-13T14:36:19.819Z,20.40
2022-12-13T14:38:43.542Z,20.27
2022-12-13T14:41:08.931Z,20.23
2022-12-13T14:43:35.495Z,20.80
2022-12-13T14:46:01.273Z,19.57
2022-12-13T14:48:28.917Z,20.53
2022-12-13T14:50:55.144Z,20.63
2022-12-13T14:53:27.759Z,27.57
2022-12-13T14:56:07.614Z,25.87
2022-12-13T14:58:31.396Z,22.83
2022-12-13T15:00:57.803Z,23.20
2022-12-13T15:03:25.408Z,23.97
2022-12-13T15:05:55.809Z,22.73
2022-12-13T15:08:21.183Z,23.30
2022-12-13T15:10:49.159Z,21.53
2022-12-13T15:13:29.188Z,19.73
2022-12-13T15:15:56.984Z,20.50
2022-12-13T15:18:26.557Z,18.57
2022-12-13T15:21:01.945Z,19.60
2022-12-13T15:23:41.724Z,19.87
2022-12-13T15:26:27.949Z,18.83
2022-12-13T15:28:58.110Z,19.77
2022-12-13T15:31:22.229Z,20.10
2022-12-13T15:33:48.601Z,19.07
2022-12-13T15:36:18.930Z,20.43
2022-12-13T15:39:01.662Z,19.00
2022-12-13T15:41:30.063Z,19.03
2022-12-13T15:43:56.367Z,19.67
2022-12-13T15:46:26.910Z,18.20
2022-12-13T15:48:52.086Z,19.20
2022-12-13T15:51:28.902Z,20.03
2022-12-13T15:54:08.346Z,19.07
2022-12-13T15:56:34.485Z,19.67
2022-12-13T15:58:58.257Z,19.83
2022-12-13T16:01:29.164Z,20.10
2022-12-13T16:03:53.225Z,20.27
2022-12-13T16:06:22.791Z,20.07
2022-12-13T16:08:49.516Z,19.87
2022-12-13T16:11:13.149Z,19.77
2022-12-13T16:13:39.960Z,22.37
2022-12-13T16:16:26.712Z,20.27
2022-12-13T16:18:56.828Z,20.97
2022-12-13T16:21:21.893Z,21.90
2022-12-13T16:23:48.829Z,20.53
2022-12-13T16:26:13.843Z,21.00
2022-12-13T16:28:37.880Z,20.63
2022-12-13T16:31:13.982Z,20.80
2022-12-13T16:33:37.906Z,21.83
2022-12-13T16:36:01.577Z,21.73
2022-12-13T16:38:27.505Z,21.90
2022-12-13T16:40:55.339Z,20.53
2022-12-13T16:43:20.741Z,22.87
2022-12-13T16:45:47.622Z,23.40
2022-12-13T16:48:12.214Z,21.50
2022-12-13T16:50:37.215Z,21.63
2022-12-13T16:53:01.120Z,21.83
2022-12-13T16:55:28.825Z,21.13
2022-12-13T16:58:00.822Z,22.20
2022-12-13T17:00:24.760Z,23.60
2022-12-13T17:02:48.548Z,22.03
2022-12-13T17:05:12.198Z,22.30
2022-12-13T17:07:36.594Z,21.13
2022-12-13T17:10:01.181Z,22.90
2022-12-13T17:12:27.553Z,25.13
2022-12-13T17:14:51.221Z,23.60
2022-12-13T17:17:17.716Z,25.70
2022-12-13T17:19:41.753Z,25.23
2022-12-13T17:22:05.364Z,23.83
2022-12-13T17:24:29.025Z,24.77
2022-12-13T17:26:54.809Z,25.50
2022-12-13T17:29:20.334Z,25.60
2022-12-13T17:31:44.791Z,24.47
2022-12-13T17:34:08.524Z,25.73
2022-12-13T17:36:32.353Z,25.63
2022-12-13T17:38:55.997Z,24.20
2022-12-13T17:41:19.660Z,24.90
2022-12-13T17:43:44.299Z,24.37
2022-12-13T17:46:13.439Z,25.13
2022-12-13T17:48:40.706Z,23.63
2022-12-13T17:51:05.521Z,24.57
2022-12-13T17:53:29.374Z,25.60
2022-12-13T17:55:57.953Z,26.20
2022-12-13T17:58:21.703Z,28.67
2022-12-13T18:00:45.266Z,26.87
2022-12-13T18:03:10.305Z,24.23
2022-12-13T18:05:36.886Z,24.90
2022-12-13T18:08:00.737Z,24.77
2022-12-13T18:10:29.502Z,25.67
2022-12-13T18:12:53.833Z,25.47
2022-12-13T18:15:17.488Z,25.27
2022-12-13T18:18:10.173Z,24.77
2022-12-13T18:20:26.347Z,23.93
2022-12-13T18:22:51.573Z,23.50
2022-12-13T18:25:15.509Z,24.03
2022-12-13T18:27:39.063Z,24.87
2022-12-13T18:30:03.005Z,25.90
2022-12-13T18:32:26.615Z,24.63
2022-12-13T18:34:50.286Z,25.17
2022-12-13T18:37:19.744Z,26.10
2022-12-13T18:39:43.967Z,27.10
2022-12-13T18:42:18.676Z,26.73
2022-12-13T18:44:42.264Z,26.10
2022-12-13T18:47:21.151Z,26.90
2022-12-13T18:49:54.603Z,26.67
2022-12-13T18:52:20.542Z,25.90
2022-12-13T18:54:46.030Z,23.93
2022-12-13T18:57:19.418Z,25.17
2022-12-13T18:59:43.648Z,27.17
2022-12-13T19:02:18.279Z,24.60
2022-12-13T19:04:43.066Z,24.67
2022-12-13T19:07:20.729Z,28.13
2022-12-13T19:09:44.346Z,33.80
2022-12-13T19:12:18.254Z,27.97
2022-12-13T19:14:41.943Z,26.53
2022-12-13T19:17:05.631Z,27.27
2022-12-13T19:19:29.363Z,25.37
2022-12-13T19:21:53.113Z,25.00
2022-12-13T19:24:18.289Z,23.87
2022-12-13T19:26:42.005Z,25.60
2022-12-13T19:29:05.745Z,25.73
2022-12-13T19:31:32.344Z,24.47
2022-12-13T19:33:58.002Z,25.43
2022-12-13T19:36:21.618Z,26.07
2022-12-13T19:38:46.174Z,26.07
2022-12-13T19:41:14.232Z,27.70
2022-12-13T19:43:38.170Z,25.77
2022-12-13T19:46:03.963Z,26.03
2022-12-13T19:48:27.595Z,25.33
2022-12-13T19:50:51.266Z,25.77
2022-12-13T19:53:14.906Z,26.13
2022-12-13T19:55:43.619Z,26.40
2022-12-13T19:58:08.619Z,26.80
2022-12-13T20:00:32.356Z,26.30
2022-12-13T20:02:56.116Z,27.77
2022-12-13T20:05:20.602Z,27.60
2022-12-13T20:07:44.474Z,28.00
2022-12-13T20:10:09.876Z,27.83
2022-12-13T20:12:37.197Z,29.83
2022-12-13T20:15:05.052Z,28.47
2022-12-13T20:17:28.690Z,28.80
2022-12-13T20:19:52.355Z,28.77
2022-12-13T20:22:16.866Z,28.93
2022-12-13T20:24:40.508Z,30.13
2022-12-13T20:27:04.181Z,30.73
2022-12-13T20:29:28.069Z,30.67
2022-12-13T20:31:54.290Z,31.07
2022-12-13T20:34:18.067Z,31.83
2022-12-13T20:36:42.798Z,31.07
2022-12-13T20:39:08.235Z,29.60
2022-12-13T20:41:34.436Z,30.10
2022-12-13T20:44:00.199Z,30.33
2022-12-13T20:46:24.925Z,29.53
2022-12-13T20:48:51.343Z,31.37
2022-12-13T20:51:17.231Z,28.93
2022-12-13T20:53:44.565Z,30.20
2022-12-13T20:56:11.974Z,28.30
2022-12-13T20:58:39.888Z,26.60
2022-12-13T21:01:05.499Z,24.80
2022-12-13T21:03:29.378Z,27.27
2022-12-13T21:05:54.599Z,24.73
2022-12-13T21:08:36.697Z,26.00
2022-12-13T21:11:20.500Z,24.13
2022-12-13T21:13:44.217Z,23.57
2022-12-13T21:16:14.609Z,22.37
2022-12-13T21:18:38.308Z,23.43
2022-12-13T21:21:03.344Z,24.40
2022-12-13T21:23:27.314Z,23.87
2022-12-13T21:25:53.471Z,23.37
2022-12-13T21:28:17.147Z,23.77
2022-12-13T21:30:40.743Z,22.97
2022-12-13T21:33:04.468Z,23.57
2022-12-13T21:35:28.111Z,24.27
2022-12-13T21:37:57.783Z,23.63
2022-12-13T21:40:29.291Z,26.27
2022-12-13T21:42:52.869Z,25.57
2022-12-13T21:45:16.684Z,24.63
2022-12-13T21:47:40.240Z,25.43
2022-12-13T21:50:04.179Z,25.93
2022-12-13T21:52:27.787Z,26.27
2022-12-13T21:55:03.500Z,24.63
2022-12-13T21:57:53.774Z,26.77
2022-12-13T22:00:18.064Z,25.17
2022-12-13T22:02:41.735Z,26.63
2022-12-13T22:05:06.249Z,26.03
2022-12-13T22:07:31.618Z,25.97
2022-12-13T22:09:57.686Z,25.27
2022-12-13T22:12:24.326Z,25.73
2022-12-13T22:14:48.600Z,26.17
2022-12-13T22:17:12.544Z,26.37
2022-12-13T22:19:36.205Z,25.97
2022-12-13T22:21:59.818Z,25.47
2022-12-13T22:24:23.484Z,24.90
2022-12-13T22:26:48.502Z,27.03
2022-12-13T22:29:14.128Z,26.17
2022-12-13T22:31:37.828Z,24.63
2022-12-13T22:34:01.586Z,24.10
2022-12-13T22:36:25.774Z,23.63
2022-12-13T22:38:50.823Z,23.67
2022-12-13T22:41:16.134Z,23.37
2022-12-13T22:43:41.642Z,24.30
2022-12-13T22:46:08.239Z,24.43
2022-12-13T22:48:32.496Z,25.40
2022-12-13T22:50:56.066Z,23.83
2022-12-13T22:53:20.083Z,24.80
2022-12-13T22:55:43.670Z,24.47
2022-12-13T22:58:10.420Z,24.53
2022-12-13T23:00:35.504Z,25.27
2022-12-13T23:02:59.301Z,26.93
2022-12-13T23:05:22.924Z,26.87
2022-12-13T23:07:48.582Z,27.73
2022-12-13T23:10:32.930Z,27.33
2022-12-13T23:13:04.269Z,25.93
2022-12-13T23:15:27.941Z,26.53
2022-12-13T23:17:52.929Z,26.67
2022-12-13T23:20:16.813Z,27.50
2022-12-13T23:22:40.476Z,26.53
2022-12-13T23:25:04.140Z,26.90
2022-12-13T23:27:27.822Z,26.60
2022-12-13T23:29:51.613Z,25.90
2022-12-13T23:32:15.469Z,24.03
2022-12-13T23:34:40.525Z,24.43
2022-12-13T23:37:04.155Z,25.87
2022-12-13T23:39:28.022Z,25.43
2022-12-13T23:41:52.075Z,24.07
2022-12-13T23:44:15.958Z,24.60
2022-12-13T23:46:39.965Z,24.00
2022-12-13T23:49:05.895Z,23.50
2022-12-13T23:51:31.120Z,23.53
2022-12-13T23:53:54.913Z,22.80
2022-12-13T23:56:18.935Z,23.87
2022-12-13T23:58:44.544Z,24.00
